Observation data for Seminole on 05/15/2018      Previous  Date  Next       Current Mesonet Observations  Soil Data  Daily Summary Page  Observations in Plain Language
KSM1 150500Z 17014KT 23/13 A2995 RMK A01 T02290131  RH  056%=      5-min Rain = 0
KSM1 150505Z 17015G20KT 23/14 A2994 RMK A01 T02290138  RH  059%=      5-min Rain = 0
KSM1 150510Z 17015G20KT 23/14 A2995 RMK A01 T02290141  RH  060%=      5-min Rain = 0
KSM1 150515Z 17015KT 23/14 A2995 RMK A01 T02280143  RH  061%=      5-min Rain = 0
KSM1 150520Z 17014KT 23/15 A2995 RMK A01 T02270145  RH  062%=      5-min Rain = 0
KSM1 150525Z 17016KT 23/15 A2995 RMK A01 T02270148  RH  064%=      5-min Rain = 0
KSM1 150530Z 17016G22KT 23/15 A2995 RMK A01 T02270150  RH  065%=      5-min Rain = 0
KSM1 150535Z 17016KT 23/15 A2995 RMK A01 T02260151  RH  066%=      5-min Rain = 0
KSM1 150540Z 17016G23KT 23/15 A2995 RMK A01 T02250153  RH  067%=      5-min Rain = 0
KSM1 150545Z 17015KT 22/15 A2995 RMK A01 T02240154  RH  068%=      5-min Rain = 0
KSM1 150550Z 16014G19KT 22/16 A2995 RMK A01 T02220155  RH  069%=      5-min Rain = 0
KSM1 150555Z 16014KT 22/16 A2996 RMK A01 T02210156  RH  070%=      5-min Rain = 0
KSM1 150600Z 16014KT 22/16 A2996 RMK A01 T02200157  RH  071%=      5-min Rain = 0
KSM1 150605Z 17014KT 22/16 A2996 RMK A01 T02190158  RH  071%=      5-min Rain = 0
KSM1 150610Z 17013KT 22/16 A2996 RMK A01 T02190158  RH  072%=      5-min Rain = 0
KSM1 150615Z 16014KT 22/16 A2996 RMK A01 T02170158  RH  072%=      5-min Rain = 0
KSM1 150620Z 16013G18KT 22/16 A2996 RMK A01 T02160159  RH  073%=      5-min Rain = 0
KSM1 150625Z 16012KT 22/16 A2996 RMK A01 T02150159  RH  074%=      5-min Rain = 0
KSM1 150630Z 16011KT 21/16 A2996 RMK A01 T02140159  RH  074%=      5-min Rain = 0
KSM1 150635Z 16013KT 21/16 A2996 RMK A01 T02120159  RH  075%=      5-min Rain = 0
KSM1 150640Z 16011KT 21/16 A2996 RMK A01 T02110159  RH  075%=      5-min Rain = 0
KSM1 150645Z 16011KT 21/16 A2996 RMK A01 T02090159  RH  076%=      5-min Rain = 0
KSM1 150650Z 16012KT 21/16 A2996 RMK A01 T02080159  RH  077%=      5-min Rain = 0
KSM1 150655Z 16013KT 21/16 A2996 RMK A01 T02080159  RH  077%=      5-min Rain = 0
KSM1 150700Z 16012KT 21/16 A2996 RMK A01 T02070160  RH  078%=      5-min Rain = 0
KSM1 150705Z 16012KT 21/16 A2996 RMK A01 T02060160  RH  078%=      5-min Rain = 0
KSM1 150710Z 16012KT 21/16 A2996 RMK A01 T02050160  RH  079%=      5-min Rain = 0
KSM1 150715Z 16013KT 20/16 A2997 RMK A01 T02040160  RH  079%=      5-min Rain = 0
KSM1 150720Z 16013G18KT 20/16 A2997 RMK A01 T02040161  RH  080%=      5-min Rain = 0
KSM1 150725Z 16012KT 20/16 A2997 RMK A01 T02030161  RH  081%=      5-min Rain = 0
KSM1 150730Z 16015KT 20/16 A2997 RMK A01 T02020161  RH  081%=      5-min Rain = 0
KSM1 150735Z 16012KT 20/16 A2996 RMK A01 T02010161  RH  081%=      5-min Rain = 0
KSM1 150740Z 16014KT 20/16 A2996 RMK A01 T02000161  RH  082%=      5-min Rain = 0
KSM1 150745Z 16013KT 20/16 A2996 RMK A01 T02000162  RH  083%=      5-min Rain = 0
KSM1 150750Z 16013G19KT 20/16 A2996 RMK A01 T01990162  RH  083%=      5-min Rain = 0
KSM1 150755Z 16013G18KT 20/16 A2996 RMK A01 T01980162  RH  083%=      5-min Rain = 0
KSM1 150800Z 17014G19KT 20/16 A2996 RMK A01 T01980162  RH  084%=      5-min Rain = 0
KSM1 150805Z 17013KT 20/16 A2996 RMK A01 T01970162  RH  084%=      5-min Rain = 0
KSM1 150810Z 17013KT 20/16 A2996 RMK A01 T01960162  RH  085%=      5-min Rain = 0
KSM1 150815Z 16012KT 20/16 A2996 RMK A01 T01950162  RH  085%=      5-min Rain = 0
KSM1 150820Z 17012KT 19/16 A2996 RMK A01 T01940162  RH  086%=      5-min Rain = 0
KSM1 150825Z 17013KT 19/16 A2996 RMK A01 T01930161  RH  086%=      5-min Rain = 0
KSM1 150830Z 17013KT 19/16 A2996 RMK A01 T01920161  RH  086%=      5-min Rain = 0
KSM1 150835Z 16012KT 19/16 A2996 RMK A01 T01920161  RH  087%=      5-min Rain = 0
KSM1 150840Z 17012KT 19/16 A2996 RMK A01 T01920162  RH  087%=      5-min Rain = 0
KSM1 150845Z 16012KT 19/16 A2996 RMK A01 T01910162  RH  087%=      5-min Rain = 0
KSM1 150850Z 17012KT 19/16 A2995 RMK A01 T01910162  RH  087%=      5-min Rain = 0
KSM1 150855Z 17011KT 19/16 A2995 RMK A01 T01900162  RH  088%=      5-min Rain = 0
KSM1 150900Z 17011KT 19/16 A2995 RMK A01 T01900162  RH  088%=      5-min Rain = 0
KSM1 150905Z 17011KT 19/16 A2995 RMK A01 T01890161  RH  088%=      5-min Rain = 0
KSM1 150910Z 17010G15KT 19/16 A2995 RMK A01 T01890161  RH  088%=      5-min Rain = 0
KSM1 150915Z 17011KT 19/16 A2996 RMK A01 T01890161  RH  088%=      5-min Rain = 0
KSM1 150920Z 17011KT 19/16 A2996 RMK A01 T01890161  RH  088%=      5-min Rain = 0
KSM1 150925Z 18012KT 19/16 A2995 RMK A01 T01890162  RH  089%=      5-min Rain = 0
KSM1 150930Z 17012KT 19/16 A2995 RMK A01 T01890162  RH  089%=      5-min Rain = 0
KSM1 150935Z 17012KT 19/16 A2996 RMK A01 T01890162  RH  089%=      5-min Rain = 0
KSM1 150940Z 17012KT 19/16 A2996 RMK A01 T01890163  RH  089%=      5-min Rain = 0
KSM1 150945Z 17010KT 19/16 A2996 RMK A01 T01880163  RH  089%=      5-min Rain = 0
KSM1 150950Z 18012KT 19/16 A2995 RMK A01 T01880164  RH  090%=      5-min Rain = 0
KSM1 150955Z 17012G17KT 19/17 A2995 RMK A01 T01890165  RH  090%=      5-min Rain = 0
KSM1 151000Z 17012KT 19/17 A2995 RMK A01 T01900166  RH  090%=      5-min Rain = 0
KSM1 151005Z 18013G18KT 19/17 A2995 RMK A01 T01910167  RH  090%=      5-min Rain = 0
KSM1 151010Z 18015KT 19/17 A2996 RMK A01 T01920168  RH  090%=      5-min Rain = 0
KSM1 151015Z 18015G20KT 19/17 A2996 RMK A01 T01920168  RH  090%=      5-min Rain = 0
KSM1 151020Z 18014G20KT 19/17 A2995 RMK A01 T01920168  RH  090%=      5-min Rain = 0
KSM1 151025Z 18014KT 19/17 A2995 RMK A01 T01920168  RH  091%=      5-min Rain = 0
KSM1 151030Z 18016G21KT 19/17 A2995 RMK A01 T01920169  RH  091%=      5-min Rain = 0
KSM1 151035Z 18015G22KT 19/17 A2995 RMK A01 T01940171  RH  091%=      5-min Rain = 0
KSM1 151040Z 18016G21KT 20/17 A2995 RMK A01 T01950171  RH  090%=      5-min Rain = 0
KSM1 151045Z 19015G21KT 20/17 A2995 RMK A01 T01960171  RH  090%=      5-min Rain = 0
KSM1 151050Z 19014G19KT 20/17 A2995 RMK A01 T01960170  RH  090%=      5-min Rain = 0
KSM1 151055Z 19014KT 20/17 A2995 RMK A01 T01950170  RH  090%=      5-min Rain = 0
KSM1 151100Z 19013KT 20/17 A2995 RMK A01 T01950170  RH  090%=      5-min Rain = 0
KSM1 151105Z 19013G18KT 20/17 A2995 RMK A01 T01950171  RH  090%=      5-min Rain = 0
KSM1 151110Z 19012G19KT 20/17 A2995 RMK A01 T01950170  RH  090%=      5-min Rain = 0
KSM1 151115Z 19012KT 20/17 A2995 RMK A01 T01950170  RH  090%=      5-min Rain = 0
KSM1 151120Z 20013G18KT 20/17 A2995 RMK A01 T01950170  RH  090%=      5-min Rain = 0
KSM1 151125Z 20012G18KT 20/17 A2995 RMK A01 T01950170  RH  090%=      5-min Rain = 0
KSM1 151130Z 20013KT 19/17 A2995 RMK A01 T01940170  RH  090%=      5-min Rain = 0
KSM1 151135Z 20011KT 19/17 A2996 RMK A01 T01940170  RH  090%=      5-min Rain = 0
KSM1 151140Z 20012G17KT 20/17 A2996 RMK A01 T01950170  RH  090%=      5-min Rain = 0
KSM1 151145Z 20012G17KT 20/17 A2996 RMK A01 T01960170  RH  090%=      5-min Rain = 0
KSM1 151150Z 20011KT 20/17 A2996 RMK A01 T01960170  RH  090%=      5-min Rain = 0
KSM1 151155Z 20012KT 20/17 A2996 RMK A01 T01960171  RH  089%=      5-min Rain = 0
KSM1 151200Z 20013G20KT 20/17 A2996 RMK A01 T01970171  RH  089%=      5-min Rain = 0
KSM1 151205Z 20013G19KT 20/17 A2996 RMK A01 T01970171  RH  089%=      5-min Rain = 0
KSM1 151210Z 20011KT 20/17 A2997 RMK A01 T01960171  RH  089%=      5-min Rain = 0
KSM1 151215Z 20011G16KT 20/17 A2997 RMK A01 T01960171  RH  090%=      5-min Rain = 0
KSM1 151220Z 21010G15KT 20/17 A2997 RMK A01 T01960170  RH  090%=      5-min Rain = 0
KSM1 151225Z 21011KT 20/17 A2997 RMK A01 T01950171  RH  090%=      5-min Rain = 0
KSM1 151230Z 21009KT 20/17 A2997 RMK A01 T01950170  RH  090%=      5-min Rain = 0
KSM1 151235Z 22009KT 20/17 A2997 RMK A01 T01950171  RH  090%=      5-min Rain = 0
KSM1 151240Z 22008KT 20/17 A2998 RMK A01 T01950171  RH  090%=      5-min Rain = 0
KSM1 151245Z 21010KT 20/17 A2997 RMK A01 T01960171  RH  090%=      5-min Rain = 0
KSM1 151250Z 21009KT 20/17 A2998 RMK A01 T01970171  RH  089%=      5-min Rain = 0
KSM1 151255Z 21009KT 20/17 A2998 RMK A01 T01980171  RH  089%=      5-min Rain = 0
KSM1 151300Z 22007KT 20/17 A2998 RMK A01 T01990171  RH  088%=      5-min Rain = 0
KSM1 151305Z 21006KT 20/17 A2998 RMK A01 T02010171  RH  088%=      5-min Rain = 0
KSM1 151310Z 22007G13KT 20/17 A2998 RMK A01 T02020171  RH  087%=      5-min Rain = 0
KSM1 151315Z 23008KT 20/17 A2999 RMK A01 T02020171  RH  087%=      5-min Rain = 0
KSM1 151320Z 23006KT 20/17 A2999 RMK A01 T02020171  RH  087%=      5-min Rain = 0
KSM1 151325Z 24007KT 20/17 A2999 RMK A01 T02030171  RH  086%=      5-min Rain = 0
KSM1 151330Z 23007KT 21/17 A2999 RMK A01 T02050171  RH  085%=      5-min Rain = 0
KSM1 151335Z 25008KT 21/17 A30 RMK A01 T02080171  RH  084%=      5-min Rain = 0
KSM1 151340Z 24008KT 21/17 A30 RMK A01 T02100171  RH  082%=      5-min Rain = 0
KSM1 151345Z 24010KT 21/17 A30 RMK A01 T02120170  RH  081%=      5-min Rain = 0
KSM1 151350Z 24010KT 22/17 A30 RMK A01 T02150170  RH  079%=      5-min Rain = 0
KSM1 151355Z 24011KT 22/17 A2999 RMK A01 T02180169  RH  078%=      5-min Rain = 0
KSM1 151400Z 24011KT 22/17 A2999 RMK A01 T02170168  RH  077%=      5-min Rain = 0
KSM1 151405Z 23010G15KT 22/17 A30 RMK A01 T02210167  RH  075%=      5-min Rain = 0
KSM1 151410Z 24010KT 22/17 A30 RMK A01 T02240165  RH  073%=      5-min Rain = 0
KSM1 151415Z 25010KT 23/16 A30 RMK A01 T02260162  RH  070%=      5-min Rain = 0
KSM1 151420Z 25009G14KT 23/16 A30 RMK A01 T02290163  RH  069%=      5-min Rain = 0
KSM1 151425Z 24009KT 23/16 A2999 RMK A01 T02300161  RH  068%=      5-min Rain = 0
KSM1 151430Z 24009KT 23/16 A2999 RMK A01 T02330162  RH  067%=      5-min Rain = 0
KSM1 151435Z 24011G16KT 24/16 A2999 RMK A01 T02350160  RH  066%=      5-min Rain = 0
KSM1 151440Z 23011KT 24/16 A2999 RMK A01 T02370159  RH  065%=      5-min Rain = 0
KSM1 151445Z 23010G15KT 24/16 A30 RMK A01 T02410157  RH  062%=      5-min Rain = 0
KSM1 151450Z 25010KT 25/15 A30 RMK A01 T02450154  RH  060%=      5-min Rain = 0
KSM1 151455Z 24009KT 25/15 A30 RMK A01 T02490152  RH  058%=      5-min Rain = 0
KSM1 151500Z 25010G15KT 25/15 A30 RMK A01 T02510151  RH  056%=      5-min Rain = 0
KSM1 151505Z 25009KT 25/15 A30 RMK A01 T02540151  RH  056%=      5-min Rain = 0
KSM1 151510Z 25010KT 26/15 A30 RMK A01 T02570150  RH  054%=      5-min Rain = 0
KSM1 151515Z 24011KT 26/15 A30 RMK A01 T02590146  RH  052%=      5-min Rain = 0
KSM1 151520Z 25010KT 26/14 A30 RMK A01 T02620142  RH  050%=      5-min Rain = 0
KSM1 151525Z 24010KT 27/14 A30 RMK A01 T02650138  RH  047%=      5-min Rain = 0
KSM1 151530Z 25009KT 27/14 A30 RMK A01 T02690135  RH  046%=      5-min Rain = 0
KSM1 151535Z 25008G13KT 27/13 A30 RMK A01 T02740131  RH  043%=      5-min Rain = 0
KSM1 151540Z 25008KT 28/13 A30 RMK A01 T02780126  RH  041%=      5-min Rain = 0
KSM1 151545Z 25009KT 28/12 A30 RMK A01 T02830120  RH  038%=      5-min Rain = 0
KSM1 151550Z 25009KT 29/11 A30 RMK A01 T02860111  RH  035%=      5-min Rain = 0
KSM1 151555Z 26010KT 29/11 A30 RMK A01 T02900106  RH  033%=      5-min Rain = 0
KSM1 151600Z 25009KT 29/11 A30 RMK A01 T02920107  RH  033%=      5-min Rain = 0
KSM1 151605Z 25010KT 30/10 A30 RMK A01 T02970101  RH  030%=      5-min Rain = 0
KSM1 151610Z 26010G15KT 30/10 A30 RMK A01 T03000097  RH  029%=      5-min Rain = 0
KSM1 151615Z 25010KT 30/09 A30 RMK A01 T03020094  RH  028%=      5-min Rain = 0
KSM1 151620Z 25009KT 31/09 A2999 RMK A01 T03070091  RH  027%=      5-min Rain = 0
KSM1 151625Z 25008G13KT 31/09 A2999 RMK A01 T03120087  RH  026%=      5-min Rain = 0
KSM1 151630Z 25011KT 31/07 A2999 RMK A01 T03140071  RH  023%=      5-min Rain = 0
KSM1 151635Z 25009KT 32/07 A2999 RMK A01 T03160074  RH  023%=      5-min Rain = 0
KSM1 151640Z 26010KT 32/06 A2999 RMK A01 T03190063  RH  021%=      5-min Rain = 0
KSM1 151645Z 25010G16KT 32/05 A2999 RMK A01 T03240045  RH  018%=      5-min Rain = 0
KSM1 151650Z 26010G15KT 33/04 A30 RMK A01 T03270036  RH  016%=      5-min Rain = 0
KSM1 151655Z 25009KT 33/01 A30 RMK A01 T03290010  RH  013%=      5-min Rain = 0
KSM1 151700Z 27008G14KT 33/01 A30 RMK A01 T03310011  RH  013%=      5-min Rain = 0
KSM1 151705Z 26006G11KT 33/01 A2999 RMK A01 T03300008  RH  013%=      5-min Rain = 0
KSM1 151710Z 26007G12KT 33/M00 A2999 RMK A01 T03331003  RH  012%=      5-min Rain = 0
KSM1 151715Z 25006G11KT 34/M00 A2999 RMK A01 T03361004  RH  012%=      5-min Rain = 0
KSM1 151720Z 26006G11KT 34/M00 A2999 RMK A01 T03401003  RH  011%=      5-min Rain = 0
KSM1 151725Z 26007KT 34/M01 A2999 RMK A01 T03391005  RH  011%=      5-min Rain = 0
KSM1 151730Z 24007KT 34/00 A30 RMK A01 T034000-0  RH  012%=      5-min Rain = 0
KSM1 151735Z 26006KT 34/M01 A2999 RMK A01 T03391005  RH  011%=      5-min Rain = 0
KSM1 151740Z 23006G15KT 34/M00 A2999 RMK A01 T03411001  RH  011%=      5-min Rain = 0
KSM1 151745Z 28006KT 34/M00 A2999 RMK A01 T03421004  RH  011%=      5-min Rain = 0
KSM1 151750Z 27005KT 35/M00 A2999 RMK A01 T03451003  RH  011%=      5-min Rain = 0
KSM1 151755Z 26008KT 34/M01 A2999 RMK A01 T03441009  RH  011%=      5-min Rain = 0
KSM1 151800Z 21004KT 34/M00 A2999 RMK A01 T03391003  RH  011%=      5-min Rain = 0
KSM1 151805Z 24005G11KT 34/00 A2998 RMK A01 T03410001  RH  012%=      5-min Rain = 0
KSM1 151810Z 24009KT 34/M00 A2998 RMK A01 T03421001  RH  011%=      5-min Rain = 0
KSM1 151815Z 26008G13KT 34/M01 A2998 RMK A01 T03421007  RH  011%=      5-min Rain = 0
KSM1 151820Z 27005KT 34/M01 A2998 RMK A01 T03421012  RH  011%=      5-min Rain = 0
KSM1 151825Z 22003KT 34/M01 A2997 RMK A01 T03401012  RH  011%=      5-min Rain = 0
KSM1 151830Z 27006G11KT 34/M01 A2997 RMK A01 T03411006  RH  011%=      5-min Rain = 0
KSM1 151835Z 31004KT 34/M01 A2997 RMK A01 T03421008  RH  011%=      5-min Rain = 0
KSM1 151840Z 28005G11KT 35/M01 A2997 RMK A01 T03451014  RH  010%=      5-min Rain = 0
KSM1 151845Z 23007G14KT 35/M02 A2997 RMK A01 T03451016  RH  010%=      5-min Rain = 0
KSM1 151850Z 26005KT 35/M02 A2997 RMK A01 T03471017  RH  010%=      5-min Rain = 0
KSM1 151855Z 30008KT 35/M01 A2997 RMK A01 T03521013  RH  010%=      5-min Rain = 0
KSM1 151900Z 32007G13KT 35/M01 A2997 RMK A01 T03511012  RH  010%=      5-min Rain = 0
KSM1 151905Z 28005KT 35/M02 A2997 RMK A01 T03501016  RH  010%=      5-min Rain = 0
KSM1 151910Z 27005G10KT 35/M02 A2997 RMK A01 T03501019  RH  010%=      5-min Rain = 0
KSM1 151915Z 30003G9KT 35/M02 A2997 RMK A01 T03481016  RH  010%=      5-min Rain = 0
KSM1 151920Z 27004G12KT 35/M02 A2996 RMK A01 T03471016  RH  010%=      5-min Rain = 0
KSM1 151925Z 26011G16KT 35/M02 A2996 RMK A01 T03521016  RH  010%=      5-min Rain = 0
KSM1 151930Z 25009G15KT 35/M02 A2996 RMK A01 T03531021  RH  009%=      5-min Rain = 0
KSM1 151935Z 23003KT 35/M02 A2996 RMK A01 T03531021  RH  009%=      5-min Rain = 0
KSM1 151940Z 25010G15KT 36/M02 A2995 RMK A01 T03571018  RH  009%=      5-min Rain = 0
KSM1 151945Z 25006G12KT 35/M02 A2995 RMK A01 T03511022  RH  009%=      5-min Rain = 0
KSM1 151950Z 24004G11KT 35/M02 A2995 RMK A01 T03461022  RH  010%=      5-min Rain = 0
KSM1 151955Z 26007KT 35/M02 A2995 RMK A01 T03471022  RH  009%=      5-min Rain = 0
KSM1 152000Z 27006G11KT 35/M02 A2995 RMK A01 T03471023  RH  009%=      5-min Rain = 0
KSM1 152005Z 25004KT 34/M02 A2995 RMK A01 T03441021  RH  010%=      5-min Rain = 0
KSM1 152010Z 20007KT 35/M01 A2994 RMK A01 T03491009  RH  010%=      5-min Rain = 0
KSM1 152015Z 21007KT 35/M01 A2994 RMK A01 T03461011  RH  010%=      5-min Rain = 0
KSM1 152020Z 22009G14KT 34/M01 A2994 RMK A01 T03441011  RH  010%=      5-min Rain = 0
KSM1 152025Z 19010KT 35/M01 A2994 RMK A01 T03491012  RH  010%=      5-min Rain = 0
KSM1 152030Z 20009KT 35/M01 A2994 RMK A01 T03471011  RH  010%=      5-min Rain = 0
KSM1 152035Z 20007KT 35/M01 A2993 RMK A01 T03511008  RH  010%=      5-min Rain = 0
KSM1 152040Z 21005G12KT 36/M01 A2993 RMK A01 T03551009  RH  010%=      5-min Rain = 0
KSM1 152045Z 21009G14KT 36/M01 A2993 RMK A01 T03591012  RH  010%=      5-min Rain = 0
KSM1 152050Z 24008G14KT 35/M02 A2993 RMK A01 T03541016  RH  010%=      5-min Rain = 0
KSM1 152055Z 26003KT 34/M02 A2992 RMK A01 T03441018  RH  010%=      5-min Rain = 0
KSM1 152100Z 24008G13KT 35/M02 A2992 RMK A01 T03461015  RH  010%=      5-min Rain = 0
KSM1 152105Z 24006KT 36/M01 A2992 RMK A01 T03551014  RH  010%=      5-min Rain = 0
KSM1 152110Z 26004G9KT 36/M01 A2992 RMK A01 T03581014  RH  009%=      5-min Rain = 0
KSM1 152115Z 27008G15KT 36/M02 A2992 RMK A01 T03561018  RH  009%=      5-min Rain = 0
KSM1 152120Z 27007KT 35/M02 A2991 RMK A01 T03511020  RH  009%=      5-min Rain = 0
KSM1 152125Z 27003G8KT 35/M02 A2991 RMK A01 T03541021  RH  009%=      5-min Rain = 0
KSM1 152130Z 29001KT 35/M02 A2991 RMK A01 T03541021  RH  009%=      5-min Rain = 0
KSM1 152135Z 28003G11KT 36/M02 A2991 RMK A01 T03581021  RH  009%=      5-min Rain = 0
KSM1 152140Z 26008G14KT 36/M02 A2991 RMK A01 T03581022  RH  009%=      5-min Rain = 0
KSM1 152145Z 27011G16KT 35/M02 A299 RMK A01 T03531023  RH  009%=      5-min Rain = 0
KSM1 152150Z 28008KT 35/M02 A2991 RMK A01 T03481023  RH  009%=      5-min Rain = 0
KSM1 152155Z 29008G13KT 35/M02 A2991 RMK A01 T03531022  RH  009%=      5-min Rain = 0
KSM1 152200Z 35009G14KT 35/00 A2991 RMK A01 T03540003  RH  011%=      5-min Rain = 0
KSM1 152205Z 01011G16KT 35/02 A299 RMK A01 T03470016  RH  013%=      5-min Rain = 0
KSM1 152210Z 02014G19KT 34/02 A299 RMK A01 T03440015  RH  013%=      5-min Rain = 0
KSM1 152215Z 04012G17KT 33/01 A299 RMK A01 T03340011  RH  013%=      5-min Rain = 0
KSM1 152220Z 03013G19KT 34/01 A299 RMK A01 T03350009  RH  013%=      5-min Rain = 0
KSM1 152225Z 03013KT 35/01 A299 RMK A01 T03450009  RH  012%=      5-min Rain = 0
KSM1 152230Z 02010G17KT 35/01 A299 RMK A01 T03450008  RH  012%=      5-min Rain = 0
KSM1 152235Z 01009G17KT 35/01 A299 RMK A01 T03450008  RH  012%=      5-min Rain = 0
KSM1 152240Z 00013KT 34/01 A299 RMK A01 T03440009  RH  012%=      5-min Rain = 0
KSM1 152245Z 01009KT 34/01 A299 RMK A01 T03350007  RH  013%=      5-min Rain = 0
KSM1 152250Z 02009KT 33/01 A299 RMK A01 T03340006  RH  013%=      5-min Rain = 0
KSM1 152255Z 01008KT 33/01 A299 RMK A01 T03340005  RH  012%=      5-min Rain = 0
KSM1 152300Z 02005KT 33/01 A2989 RMK A01 T03340005  RH  012%=      5-min Rain = 0
KSM1 152305Z 04008KT 33/00 A2989 RMK A01 T03340004  RH  012%=      5-min Rain = 0
KSM1 152310Z 05007KT 34/01 A2989 RMK A01 T03390005  RH  012%=      5-min Rain = 0
KSM1 152315Z 06007KT 34/01 A2989 RMK A01 T03420005  RH  012%=      5-min Rain = 0
KSM1 152320Z 06008KT 34/00 A2989 RMK A01 T03400004  RH  012%=      5-min Rain = 0
KSM1 152325Z 08007KT 33/00 A2989 RMK A01 T03340004  RH  012%=      5-min Rain = 0
KSM1 152330Z 06008G13KT 33/00 A2988 RMK A01 T03310002  RH  012%=      5-min Rain = 0
KSM1 152335Z 04009KT 33/00 A2988 RMK A01 T03280000  RH  012%=      5-min Rain = 0
KSM1 152340Z 06008KT 33/00 A2988 RMK A01 T03270000  RH  013%=      5-min Rain = 0
KSM1 152345Z 07009KT 33/M00 A2988 RMK A01 T03261001  RH  012%=      5-min Rain = 0
KSM1 152350Z 07007KT 33/M00 A2988 RMK A01 T03261002  RH  012%=      5-min Rain = 0
KSM1 152355Z 05004KT 33/00 A2988 RMK A01 T032600-0  RH  013%=      5-min Rain = 0
KSM1 160000Z 07004KT 33/00 A2988 RMK A01 T03310001  RH  012%=      5-min Rain = 0
KSM1 160005Z 08005KT 33/00 A2988 RMK A01 T03320002  RH  012%=      5-min Rain = 0
KSM1 160010Z 08005KT 33/00 A2988 RMK A01 T03330004  RH  012%=      5-min Rain = 0
KSM1 160015Z 07006KT 33/00 A2988 RMK A01 T03340004  RH  012%=      5-min Rain = 0
KSM1 160020Z 09006KT 34/01 A2988 RMK A01 T03350008  RH  013%=      5-min Rain = 0
KSM1 160025Z 08008KT 33/01 A2988 RMK A01 T03340005  RH  013%=      5-min Rain = 0
KSM1 160030Z 09007KT 33/01 A2988 RMK A01 T03320006  RH  013%=      5-min Rain = 0
KSM1 160035Z 11008KT 33/01 A2988 RMK A01 T03320013  RH  013%=      5-min Rain = 0
KSM1 160040Z 11009KT 33/02 A2989 RMK A01 T03280019  RH  014%=      5-min Rain = 0
KSM1 160045Z 11010KT 33/02 A2989 RMK A01 T03260018  RH  014%=      5-min Rain = 0
KSM1 160050Z 11010KT 32/04 A2989 RMK A01 T03240036  RH  017%=      5-min Rain = 0
KSM1 160055Z 12011KT 32/06 A2989 RMK A01 T03190056  RH  020%=      5-min Rain = 0
KSM1 160100Z 12012KT 32/05 A2989 RMK A01 T03150048  RH  019%=      5-min Rain = 0
KSM1 160105Z 12013G18KT 31/06 A2989 RMK A01 T03130055  RH  020%=      5-min Rain = 0
KSM1 160110Z 13015KT 31/07 A299 RMK A01 T03070070  RH  023%=      5-min Rain = 0
KSM1 160115Z 14015KT 30/08 A299 RMK A01 T03020075  RH  025%=      5-min Rain = 0
KSM1 160120Z 14016KT 30/08 A299 RMK A01 T02950083  RH  027%=      5-min Rain = 0
KSM1 160125Z 14015G21KT 29/08 A299 RMK A01 T02920083  RH  028%=      5-min Rain = 0
KSM1 160130Z 14019G24KT 29/08 A2991 RMK A01 T02900082  RH  028%=      5-min Rain = 0
KSM1 160135Z 14016G21KT 29/08 A2991 RMK A01 T02870081  RH  028%=      5-min Rain = 0
KSM1 160140Z 13016G24KT 28/08 A2991 RMK A01 T02820079  RH  029%=      5-min Rain = 0
KSM1 160145Z 12018G24KT 28/09 A2991 RMK A01 T02790092  RH  032%=      5-min Rain = 0
KSM1 160150Z 12017KT 28/10 A2991 RMK A01 T02750097  RH  034%=      5-min Rain = 0
KSM1 160155Z 12015G23KT 27/11 A2991 RMK A01 T02690108  RH  038%=      5-min Rain = 0
KSM1 160200Z 12018KT 26/11 A2991 RMK A01 T02640110  RH  039%=      5-min Rain = 0
KSM1 160205Z 13016G21KT 26/11 A2991 RMK A01 T02620111  RH  040%=      5-min Rain = 0
KSM1 160210Z 13015G20KT 26/11 A2991 RMK A01 T02600112  RH  041%=      5-min Rain = 0
KSM1 160215Z 13015G20KT 26/11 A2992 RMK A01 T02590112  RH  041%=      5-min Rain = 0
KSM1 160220Z 13014G20KT 26/11 A2992 RMK A01 T02580112  RH  041%=      5-min Rain = 0
KSM1 160225Z 13015KT 26/11 A2992 RMK A01 T02560109  RH  041%=      5-min Rain = 0
KSM1 160230Z 13012KT 26/11 A2992 RMK A01 T02550108  RH  041%=      5-min Rain = 0
KSM1 160235Z 12013G18KT 25/11 A2993 RMK A01 T02520109  RH  042%=      5-min Rain = 0
KSM1 160240Z 12013G18KT 25/11 A2993 RMK A01 T02490109  RH  043%=      5-min Rain = 0
KSM1 160245Z 12014KT 25/11 A2993 RMK A01 T02470109  RH  043%=      5-min Rain = 0
KSM1 160250Z 12013KT 24/11 A2994 RMK A01 T02440107  RH  044%=      5-min Rain = 0
KSM1 160255Z 11012KT 24/11 A2995 RMK A01 T02420107  RH  044%=      5-min Rain = 0
KSM1 160300Z 11012KT 24/11 A2995 RMK A01 T02400107  RH  044%=      5-min Rain = 0
KSM1 160305Z 10011KT 24/11 A2995 RMK A01 T02400107  RH  045%=      5-min Rain = 0
KSM1 160310Z 11014G19KT 24/11 A2995 RMK A01 T02390110  RH  046%=      5-min Rain = 0
KSM1 160315Z 11012G19KT 24/11 A2995 RMK A01 T02400111  RH  046%=      5-min Rain = 0
KSM1 160320Z 11013G19KT 24/11 A2995 RMK A01 T02400112  RH  046%=      5-min Rain = 0
KSM1 160325Z 11012G17KT 24/11 A2996 RMK A01 T02380113  RH  047%=      5-min Rain = 0
KSM1 160330Z 11012KT 24/11 A2996 RMK A01 T02370114  RH  048%=      5-min Rain = 0
KSM1 160335Z 11013KT 24/11 A2996 RMK A01 T02360114  RH  048%=      5-min Rain = 0
KSM1 160340Z 10011KT 24/11 A2997 RMK A01 T02350113  RH  048%=      5-min Rain = 0
KSM1 160345Z 10011KT 23/11 A2997 RMK A01 T02330112  RH  048%=      5-min Rain = 0
KSM1 160350Z 10012KT 23/11 A2997 RMK A01 T02340111  RH  047%=      5-min Rain = 0
KSM1 160355Z 10012KT 23/11 A2997 RMK A01 T02330109  RH  047%=      5-min Rain = 0
KSM1 160400Z 10011KT 23/11 A2998 RMK A01 T02320109  RH  047%=      5-min Rain = 0
KSM1 160405Z 09011KT 23/11 A2998 RMK A01 T02300109  RH  048%=      5-min Rain = 0
KSM1 160410Z 10010KT 23/11 A2998 RMK A01 T02280109  RH  048%=      5-min Rain = 0
KSM1 160415Z 11009KT 23/11 A2998 RMK A01 T02270109  RH  049%=      5-min Rain = 0
KSM1 160420Z 11009KT 23/11 A2998 RMK A01 T02270111  RH  049%=      5-min Rain = 0
KSM1 160425Z 12009KT 23/11 A2998 RMK A01 T02250112  RH  050%=      5-min Rain = 0
KSM1 160430Z 11009KT 22/11 A2998 RMK A01 T02240113  RH  051%=      5-min Rain = 0
KSM1 160435Z 11009KT 22/11 A2999 RMK A01 T02230114  RH  052%=      5-min Rain = 0
KSM1 160440Z 10010KT 22/11 A2999 RMK A01 T02240114  RH  052%=      5-min Rain = 0
KSM1 160445Z 10010KT 22/11 A2999 RMK A01 T02230114  RH  052%=      5-min Rain = 0
KSM1 160450Z 10008KT 22/12 A2999 RMK A01 T02200115  RH  053%=      5-min Rain = 0
KSM1 160455Z 10010KT 22/12 A2999 RMK A01 T02190117  RH  054%=      5-min Rain = 0

Page generated in 0.0092 seconds.